Latest Weather Observations for Karratha

IDW60801

Issued at 4:05 pm WST Wednesday 1 October 2014 (issued every 30 minutes, with the page automatically refreshed every 10 minutes)

About weather observations | Map of weather stations | Latest weather observations for WA | Other Formats
Station Details ID: 004083 Name: KARRATHA AERO Lat: -20.71 Lon: 116.77 Height: 5.3 m
Data from the previous 72 hours. | See also: Recent months at Karratha
Date/Time
WST
Temp
°C
App
Temp
°C
Dew
Point
Rel
Hum
%
Delta-T
°C
Wind Press
QNH
hPa
Press
MSL
hPa
Rain
since 9 am
mm
Dir
 
Spd
km/h
Gust
km/h
Spd
kts
Gust
kts
01/04:00pm 30.2 26.6 17.6 46 8.0 W 33 41 18 22 1011.2 1011.2 0.0
01/03:30pm 31.4 26.6 16.6 41 9.3 W 37 44 20 24 1011.2 1011.2 0.0
01/03:00pm 31.1 26.6 16.3 41 9.3 W 35 43 19 23 1011.3 1011.3 0.0
01/02:30pm 31.8 26.4 14.9 36 10.4 W 37 44 20 24 1011.4 1011.4 0.0
01/02:00pm 32.6 27.8 14.7 34 11.0 W 33 41 18 22 1011.7 1011.7 0.0
01/01:30pm 34.2 28.7 12.0 26 13.2 W 32 35 17 19 1012.0 1012.0 0.0
01/01:00pm 34.4 28.6 9.6 22 14.2 W 30 35 16 19 1012.3 1012.3 0.0
01/12:30pm 34.0 29.7 10.6 24 13.6 W 24 30 13 16 1012.7 1012.7 0.0
01/12:00pm 33.9 29.0 8.5 21 14.3 W 24 28 13 15 1013.2 1013.2 0.0
01/11:30am 33.5 29.1 8.9 22 13.9 WNW 22 28 12 15 1013.7 1013.7 0.0
01/11:00am 33.9 29.4 8.5 21 14.3 W 22 26 12 14 1014.1 1014.1 0.0
01/10:30am 33.6 28.3 6.8 19 14.6 W 24 32 13 17 1014.3 1014.3 0.0
01/10:00am 33.5 28.8 5.9 18 14.9 SW 20 30 11 16 1014.5 1014.5 0.0
01/09:30am 32.4 27.6 5.8 19 14.2 SW 20 26 11 14 1014.8 1014.8 0.0
01/09:00am 31.4 26.8 6.5 21 13.4 SSW 20 28 11 15 1015.0 1015.0 0.0
01/08:30am 29.5 25.1 7.4 25 11.9 SSW 20 26 11 14 1014.7 1014.7 0.0
01/08:00am 28.1 23.9 8.4 29 10.7 S 20 24 11 13 1014.4 1014.4 0.0
01/07:30am 24.8 22.8 10.3 40 8.0 SW 11 15 6 8 1014.4 1014.4 0.0
01/07:00am 23.1 20.7 11.5 48 6.5 WSW 15 17 8 9 1013.5 1013.5 0.0
01/06:30am 21.3 20.1 12.7 58 4.9 WSW 11 15 6 8 1013.3 1013.3 0.0
01/06:00am 19.9 18.3 12.9 64 4.0 WSW 13 15 7 8 1013.1 1013.1 0.0
01/05:30am 19.4 18.3 14.4 73 2.9 WSW 13 15 7 8 1012.8 1012.8 0.0
01/05:00am 19.7 19.7 15.1 75 2.7 SW 9 13 5 7 1012.6 1012.6 0.0
01/04:30am 21.1 19.9 16.1 73 3.0 WSW 17 20 9 11 1012.3 1012.3 0.0
01/04:00am 21.0 20.0 15.5 71 3.3 WSW 15 19 8 10 1012.1 1012.1 0.0
01/03:30am 21.4 19.5 15.3 68 3.6 WSW 19 22 10 12 1012.0 1012.0 0.0
01/03:00am 21.8 18.8 14.7 64 4.2 WSW 24 30 13 16 1011.9 1011.9 0.0
01/02:30am 22.0 19.2 14.4 62 4.5 WSW 22 28 12 15 1012.3 1012.3 0.0
01/02:00am 22.7 18.8 14.3 59 4.9 WSW 28 35 15 19 1012.3 1012.3 0.0
01/01:30am 22.6 19.9 14.7 61 4.7 W 22 28 12 15 1012.4 1012.4 0.0
01/01:00am 22.5 20.5 15.6 65 4.1 WSW 20 24 11 13 1012.6 1012.6 0.0
01/12:30am 22.5 20.8 15.8 66 4.0 WSW 19 24 10 13 1013.0 1013.0 0.0
01/12:00am 23.1 21.1 16.4 66 4.1 WSW 22 28 12 15 1013.0 1013.0 0.0
 
Date/Time
WST
Temp
°C
App
Temp
°C
Dew
Point
Rel
Hum
%
Delta-T
°C
Wind Press
QNH
hPa
Press
MSL
hPa
Rain
since 9 am
mm
Dir
 
Spd
km/h
Gust
km/h
Spd
kts
Gust
kts
30/11:30pm 24.0 21.8 16.8 64 4.4 WSW 24 32 13 17 1013.4 1013.4 0.0
30/11:00pm 24.4 21.0 17.6 66 4.2 W 32 39 17 21 1013.2 1013.2 0.0
30/10:30pm 24.5 23.2 18.2 68 4.0 W 22 30 12 16 1013.9 1013.9 0.0
30/10:00pm 24.7 23.1 18.4 68 4.0 W 24 32 13 17 1014.1 1014.1 0.0
30/09:30pm 24.9 24.0 19.0 69 3.8 W 22 28 12 15 1014.2 1014.2 0.0
30/09:00pm 24.9 24.9 21.0 79 2.6 W 22 26 12 14 1014.2 1014.2 0.0
30/08:30pm 25.2 25.3 21.1 78 2.7 W 22 26 12 14 1013.9 1013.9 0.0
30/08:00pm 25.8 25.1 19.4 67 4.1 W 22 28 12 15 1013.7 1013.7 0.0
30/07:30pm 26.0 25.7 19.6 68 4.1 W 20 24 11 13 1013.5 1013.5 0.0
30/07:00pm 26.4 25.8 18.8 63 4.9 W 20 22 11 12 1013.1 1013.1 0.0
30/06:30pm 27.3 27.5 18.6 59 5.6 W 15 19 8 10 1012.6 1012.6 0.0
30/06:00pm 28.5 28.1 17.1 50 7.2 W 15 19 8 10 1012.2 1012.2 0.0
30/05:30pm 30.2 29.3 16.9 44 8.4 W 17 20 9 11 1011.6 1011.6 0.0
30/05:00pm 30.7 29.7 16.7 43 8.8 W 17 22 9 12 1011.4 1011.4 0.0
30/04:30pm 32.1 28.4 9.6 25 12.8 WNW 19 24 10 13 1011.1 1011.1 0.0
30/04:00pm 32.1 29.3 13.3 31 11.3 NW 20 24 11 13 1011.1 1011.1 0.0
30/03:30pm 32.4 29.1 11.6 28 12.2 NW 20 26 11 14 1011.0 1011.0 0.0
30/03:00pm 32.5 29.2 11.6 28 12.3 NW 20 26 11 14 1011.0 1011.0 0.0
30/02:30pm 33.6 29.4 8.3 21 14.2 WNW 20 24 11 13 1011.2 1011.2 0.0
30/02:00pm 34.2 30.5 9.4 22 14.2 WNW 19 22 10 12 1011.4 1011.4 0.0
30/01:30pm 33.9 30.3 9.9 23 13.8 WNW 19 24 10 13 1011.6 1011.6 0.0
30/01:00pm 33.2 30.3 11.1 26 12.9 WNW 17 20 9 11 1012.0 1012.0 0.0
30/12:30pm 33.1 30.4 10.4 25 13.1 WNW 15 19 8 10 1012.4 1012.4 0.0
30/12:00pm 32.4 31.2 15.0 35 10.7 WNW 15 19 8 10 1013.0 1013.0 0.0
30/11:30am 31.5 30.8 15.5 38 9.9 WNW 13 17 7 9 1013.4 1013.4 0.0
30/11:00am 30.1 29.3 15.0 40 9.2 W 13 20 7 11 1013.7 1013.7 0.0
30/10:30am 29.2 28.2 15.7 44 8.3 W 15 19 8 10 1013.9 1013.9 0.0
30/10:00am 28.8 27.7 14.2 40 8.8 W 13 17 7 9 1014.1 1014.1 0.0
30/09:30am 28.6 27.3 12.5 37 9.4 W 11 13 6 7 1014.1 1014.1 0.0
30/09:00am 27.6 26.1 13.2 41 8.5 W 13 19 7 10 1013.9 1013.9 0.0
30/08:30am 26.2 24.7 14.3 48 7.1 W 15 17 8 9 1013.8 1013.8 0.0
30/08:00am 25.2 23.9 14.9 52 6.2 W 15 19 8 10 1013.8 1013.8 0.0
30/07:30am 24.0 23.3 14.4 55 5.7 W 11 15 6 8 1013.6 1013.6 0.0
30/07:00am 22.0 22.1 15.4 66 3.9 W 9 15 5 8 1013.5 1013.5 0.0
30/06:30am 20.4 19.8 14.7 70 3.3 W 11 15 6 8 1013.1 1013.1 0.0
30/06:00am 18.9 18.8 14.0 73 2.8 WSW 7 11 4 6 1013.0 1013.0 0.0
30/05:30am 19.4 18.7 13.3 68 3.5 W 9 11 5 6 1012.8 1012.8 0.0
30/05:00am 18.9 17.7 11.7 63 4.0 SW 9 11 5 6 1012.6 1012.6 0.0
30/04:30am 20.5 19.3 12.7 61 4.4 WSW 11 13 6 7 1012.5 1012.5 0.0
30/04:00am 20.5 19.3 13.9 66 3.8 WSW 13 15 7 8 1012.3 1012.3 0.0
30/03:30am 20.9 19.7 12.8 60 4.6 W 11 15 6 8 1012.2 1012.2 0.0
30/03:00am 20.9 19.9 13.4 62 4.3 WSW 11 15 6 8 1012.2 1012.2 0.0
30/02:30am 20.6 19.3 13.6 64 4.0 WSW 13 15 7 8 1012.2 1012.2 0.0
30/02:00am 20.6 19.7 13.8 65 3.9 W 11 13 6 7 1012.5 1012.5 0.0
30/01:30am 20.3 18.4 13.0 63 4.1 SW 15 17 8 9 1012.4 1012.4 0.0
30/01:00am 21.6 20.3 13.8 61 4.5 WSW 13 17 7 9 1012.6 1012.6 0.0
30/12:30am 22.4 20.2 14.3 60 4.7 WSW 19 22 10 12 1012.9 1012.9 0.0
30/12:00am 23.0 20.6 14.3 58 5.1 WSW 20 24 11 13 1013.2 1013.2 0.0
 
Date/Time
WST
Temp
°C
App
Temp
°C
Dew
Point
Rel
Hum
%
Delta-T
°C
Wind Press
QNH
hPa
Press
MSL
hPa
Rain
since 9 am
mm
Dir
 
Spd
km/h
Gust
km/h
Spd
kts
Gust
kts
29/11:30pm 23.3 21.1 14.8 59 5.0 WSW 20 26 11 14 1013.3 1013.3 0.0
29/11:00pm 23.6 20.8 15.4 60 4.9 WSW 24 28 13 15 1013.4 1013.4 0.0
29/10:30pm 23.9 20.7 16.2 62 4.7 WSW 28 33 15 18 1013.7 1013.7 0.0
29/10:00pm 24.3 21.3 16.8 63 4.6 WSW 28 33 15 18 1013.8 1013.8 0.0
29/09:30pm 24.4 21.7 17.6 66 4.2 W 28 35 15 19 1013.8 1013.8 0.0
29/09:00pm 24.6 21.8 18.1 67 4.1 W 30 35 16 19 1013.9 1013.9 0.0
29/08:30pm 25.0 21.9 17.5 63 4.7 W 30 37 16 20 1013.6 1013.6 0.0
29/08:00pm 25.0 22.4 17.7 64 4.6 W 28 33 15 18 1013.4 1013.4 0.0
29/07:30pm 25.3 23.0 18.5 66 4.3 W 28 35 15 19 1013.1 1013.1 0.0
29/07:00pm 25.6 23.9 19.0 67 4.2 W 26 35 14 19 1012.8 1012.8 0.0
29/06:30pm 26.3 23.6 17.6 58 5.5 W 28 35 15 19 1012.4 1012.4 0.0
29/06:00pm 26.5 23.8 17.6 58 5.6 W 28 33 15 18 1012.1 1012.1 0.0
29/05:30pm 27.4 23.7 17.0 53 6.5 W 32 39 17 21 1011.9 1011.9 0.0
29/05:00pm 28.2 24.5 16.1 47 7.5 W 30 37 16 20 1011.6 1011.6 0.0
29/04:30pm 28.5 24.3 16.1 47 7.7 W 33 41 18 22 1011.2 1011.2 0.0
29/04:00pm 29.2 23.9 15.3 42 8.5 W 37 44 20 24 1011.2 1011.2 0.0
29/03:30pm 29.8 25.9 16.9 45 8.1 W 33 39 18 21 1011.2 1011.2 0.0
29/03:00pm 30.3 27.1 16.3 42 8.7 WNW 28 33 15 18 1011.6 1011.6 0.0
29/02:30pm 30.4 27.2 15.3 40 9.3 NW 26 32 14 17 1011.8 1011.8 0.0
29/02:00pm 30.7 28.0 15.5 39 9.4 NW 24 30 13 16 1011.9 1011.9 0.0
29/01:30pm 31.5 28.8 14.6 36 10.3 W 22 28 12 15 1012.0 1012.0 0.0
29/01:00pm 31.8 29.2 14.9 36 10.4 W 22 28 12 15 1012.2 1012.2 0.0
29/12:30pm 31.6 28.4 14.3 35 10.5 W 24 30 13 16 1012.4 1012.4 0.0
29/12:00pm 31.7 29.6 15.2 36 10.2 W 20 26 11 14 1012.9 1012.9 0.0
29/11:30am 31.1 29.0 14.7 37 10.0 WNW 19 24 10 13 1013.3 1013.3 0.0
29/11:00am 30.2 28.6 15.9 42 8.9 WNW 19 22 10 12 1013.8 1013.8 0.0
29/10:30am 30.1 28.1 13.8 37 9.8 WNW 17 22 9 12 1014.1 1014.1 0.0
29/10:00am 28.5 26.6 14.3 41 8.5 WNW 17 20 9 11 1014.2 1014.2 0.0
29/09:30am 27.2 27.0 16.8 53 6.5 W 13 17 7 9 1014.1 1014.1 0.0
29/09:00am 26.0 25.4 15.7 53 6.3 W 13 15 7 8 1014.3 1014.3 0.0
29/08:30am 24.1 24.4 17.1 65 4.3 W 11 15 6 8 1014.2 1014.2 0.0
29/08:00am 22.6 21.8 17.1 71 3.4 W 17 19 9 10 1014.0 1014.0 0.0
29/07:30am 21.7 20.8 16.9 74 2.9 WSW 17 19 9 10 1013.8 1013.8 0.0
29/07:00am 21.4 20.1 17.2 77 2.6 WSW 20 24 11 13 1013.5 1013.5 0.0
29/06:30am 21.1 20.2 17.7 81 2.1 WSW 19 24 10 13 1013.2 1013.2 0.0
29/06:00am 20.8 20.8 18.0 84 1.7 W 15 19 8 10 1013.1 1013.1 0.0
29/05:30am 21.4 21.5 18.4 83 1.9 W 15 20 8 11 1012.9 1012.9 0.0
29/05:00am 21.0 21.0 18.0 83 1.9 W 15 19 8 10 1012.5 1012.5 0.0
29/04:30am 20.1 20.8 18.0 88 1.3 W 11 13 6 7 1012.3 1012.3 0.0
29/04:00am 19.7 20.3 17.8 89 1.2 W 11 13 6 7 1012.2 1012.2 0.0
29/03:30am 20.2 20.6 18.1 88 1.3 WSW 13 13 7 7 1012.1 1012.1 0.0
29/03:00am 21.1 21.0 18.7 86 1.5 WSW 17 20 9 11 1012.2 1012.2 0.0
29/02:30am 21.5 21.1 18.9 85 1.6 WSW 19 24 10 13 1012.6 1012.6 0.0
29/02:00am 21.7 20.8 19.1 85 1.6 WSW 22 28 12 15 1012.7 1012.7 0.0
29/01:30am 21.9 20.6 19.1 84 1.8 WSW 24 30 13 16 1013.0 1013.0 0.0
29/01:00am 22.1 20.8 19.1 83 1.9 WSW 24 30 13 16 1013.3 1013.3 0.0
29/12:30am 22.3 21.9 19.3 83 1.9 WSW 20 26 11 14 1013.5 1013.5 0.0
29/12:00am 22.4 21.5 19.0 81 2.2 WSW 22 28 12 15 1013.6 1013.6 0.0
 
Date/Time
WST
Temp
°C
App
Temp
°C
Dew
Point
Rel
Hum
%
Delta-T
°C
Wind Press
QNH
hPa
Press
MSL
hPa
Rain
since 9 am
mm
Dir
 
Spd
km/h
Gust
km/h
Spd
kts
Gust
kts
28/11:30pm 22.8 21.6 19.2 80 2.3 WSW 24 33 13 18 1013.9 1013.9 0.0
28/11:00pm 23.1 21.3 18.8 77 2.7 WSW 26 32 14 17 1014.2 1014.2 0.0
28/10:30pm 23.3 21.6 19.0 77 2.7 WSW 26 32 14 17 1014.3 1014.3 0.0
28/10:00pm 23.6 21.6 19.1 76 2.9 W 28 37 15 20 1014.4 1014.4 0.0
28/09:30pm 23.8 22.6 19.3 76 2.9 W 24 32 13 17 1014.4 1014.4 0.0
28/09:00pm 24.0 22.3 19.9 78 2.6 W 28 32 15 17 1014.3 1014.3 0.0
28/08:30pm 24.1 22.8 19.8 77 2.8 W 26 33 14 18 1014.2 1014.2 0.0
28/08:00pm 24.5 22.8 19.8 75 3.0 W 28 35 15 19 1013.9 1013.9 0.0
28/07:30pm 24.8 23.0 19.6 73 3.3 W 28 33 15 18 1013.7 1013.7 0.0
28/07:00pm 25.3 23.5 18.7 67 4.2 W 26 32 14 17 1013.4 1013.4 0.0
28/06:30pm 25.7 24.1 18.4 64 4.6 W 24 28 13 15 1013.1 1013.1 0.0
28/06:00pm 26.1 23.6 18.0 61 5.1 W 28 33 15 18 1012.9 1012.9 0.0
28/05:30pm 27.3 24.5 17.2 54 6.3 W 28 32 15 17 1012.6 1012.6 0.0
28/05:00pm 28.2 24.4 15.8 47 7.6 W 30 35 16 19 1012.4 1012.4 0.0
28/04:30pm 29.0 25.1 14.4 41 8.8 W 28 32 15 17 1012.3 1012.3 0.0

Other Formats:

Comma delimited format used in spreadsheet applications
http://www.bom.gov.au/fwo/IDW60801/IDW60801.95307.axf

JavaScript Object Notation format (JSON) in row-major order
http://www.bom.gov.au/fwo/IDW60801/IDW60801.95307.json